Aeroporto :
LOGIN :

Iscrizione | Disclaimer

   EN    FR    IT 

 










Sommario :    VFR   VFR Marginale   IFR   IFR Intensivo   IFR Molto Intensivo
Visibilità : 
Base nubi : 
>= 8 km
>= 3000ft
5 / 8 km
1000 / 3000 ft
1500m / 5 km
500 / 1000 ft
800 / 1500m
200 / 500 ft
< 800m
< 200 ft
Simboli :   Temporali  Nebbia  Neve Forte  Precipitazioni Forti  Vento > 20 kt
SIGMETs :   Varie  Temporali  Ghiacco  Turbolenza  Onda orograficha  Ceneri Vulcaniche






- Altitudine del aeroporto : 256 ft
- Codice IATA : CFR


LFRK - Caen

ULTIMO METAR :
  • 191730Z AUTO 14006KT CAVOK 04/03 Q1016 NOSIG

METARs OBSOLETI :
  • 191700Z AUTO 15005KT CAVOK 05/04 Q1016 NOSIG
  • 191630Z AUTO 13007KT CAVOK 05/03 Q1016 NOSIG
  • 191600Z AUTO 14004KT CAVOK 06/04 Q1016 NOSIG
  • 191530Z AUTO 16004KT CAVOK 07/05 Q1016 NOSIG
  • 191500Z AUTO 16005KT CAVOK 08/05 Q1016 NOSIG

TAF TAF LFRK
Valido dal 19 a 15 ore il 20 a 00 ore UTC


191400Z 1915/1924 16010KT CAVOK
Met : +33 2 31 26 68 11



MetMap, La meteo Aeronautica in un colpo d'occhio ! - Copyright ORBIFLY Dicembre 2007 - Disclaimer

ORBIFLY MET'MAP TEAM :

Programmazione e sviluppo : Alexandra Zaïnal
Concezione e sviluppo : Baudouin d'Aumeries
Co-Programmazione e sviluppo : Marc-Olivier Méhu
Supporto tecnico e logistico : Manuel Goepfert
Aiuto per la traduzione : Arnaldo La Scala

Contatto : metmap@orbifly.com




FONTI E CREDITI :

   NOAA